sensor_id;sensor_type;location;lat;lon;timestamp;P1;durP1;ratioP1;P2;durP2;ratioP2
23001;SDS011;11667;51.706;4.856;2022-12-18T00:01:41;188.30;;;46.63;;
23001;SDS011;11667;51.706;4.856;2022-12-18T00:04:30;195.75;;;48.70;;
23001;SDS011;11667;51.706;4.856;2022-12-18T00:06:51;179.18;;;46.40;;
23001;SDS011;11667;51.706;4.856;2022-12-18T00:09:21;192.75;;;48.20;;
23001;SDS011;11667;51.706;4.856;2022-12-18T00:11:53;199.25;;;49.83;;
23001;SDS011;11667;51.706;4.856;2022-12-18T00:14:22;184.45;;;49.38;;
23001;SDS011;11667;51.706;4.856;2022-12-18T00:16:52;208.47;;;48.78;;
23001;SDS011;11667;51.706;4.856;2022-12-18T00:19:21;206.70;;;46.13;;
23001;SDS011;11667;51.706;4.856;2022-12-18T00:21:51;212.15;;;48.90;;
23001;SDS011;11667;51.706;4.856;2022-12-18T00:24:21;252.45;;;48.33;;
23001;SDS011;11667;51.706;4.856;2022-12-18T00:26:50;251.35;;;48.65;;
23001;SDS011;11667;51.706;4.856;2022-12-18T00:29:19;213.05;;;47.83;;
23001;SDS011;11667;51.706;4.856;2022-12-18T00:31:49;196.70;;;47.83;;
23001;SDS011;11667;51.706;4.856;2022-12-18T00:34:18;255.50;;;50.98;;
23001;SDS011;11667;51.706;4.856;2022-12-18T00:36:48;242.60;;;46.20;;
23001;SDS011;11667;51.706;4.856;2022-12-18T00:39:17;230.83;;;46.65;;
23001;SDS011;11667;51.706;4.856;2022-12-18T00:41:47;299.32;;;45.90;;
23001;SDS011;11667;51.706;4.856;2022-12-18T00:44:34;237.45;;;43.35;;
23001;SDS011;11667;51.706;4.856;2022-12-18T00:47:04;238.50;;;46.55;;
23001;SDS011;11667;51.706;4.856;2022-12-18T00:49:33;233.43;;;47.08;;
23001;SDS011;11667;51.706;4.856;2022-12-18T00:52:03;266.25;;;46.90;;
23001;SDS011;11667;51.706;4.856;2022-12-18T00:54:33;236.03;;;46.58;;
23001;SDS011;11667;51.706;4.856;2022-12-18T00:57:02;224.62;;;47.43;;
23001;SDS011;11667;51.706;4.856;2022-12-18T00:59:32;222.27;;;49.55;;
23001;SDS011;11667;51.706;4.856;2022-12-18T01:02:01;195.55;;;48.13;;
23001;SDS011;11667;51.706;4.856;2022-12-18T01:04:31;205.32;;;47.78;;
23001;SDS011;11667;51.706;4.856;2022-12-18T01:07:01;186.43;;;46.40;;
23001;SDS011;11667;51.706;4.856;2022-12-18T01:09:33;200.50;;;47.40;;
23001;SDS011;11667;51.706;4.856;2022-12-18T01:12:02;220.85;;;49.23;;
23001;SDS011;11667;51.706;4.856;2022-12-18T01:14:32;195.30;;;47.88;;
23001;SDS011;11667;51.706;4.856;2022-12-18T01:17:01;217.93;;;47.10;;
23001;SDS011;11667;51.706;4.856;2022-12-18T01:19:32;186.28;;;45.38;;
23001;SDS011;11667;51.706;4.856;2022-12-18T01:22:03;198.00;;;47.58;;
23001;SDS011;11667;51.706;4.856;2022-12-18T01:24:32;214.45;;;48.02;;
23001;SDS011;11667;51.706;4.856;2022-12-18T01:27:01;207.45;;;48.02;;
23001;SDS011;11667;51.706;4.856;2022-12-18T01:29:31;203.45;;;48.52;;
23001;SDS011;11667;51.706;4.856;2022-12-18T01:32:02;189.87;;;47.10;;
23001;SDS011;11667;51.706;4.856;2022-12-18T01:34:33;200.30;;;46.77;;
23001;SDS011;11667;51.706;4.856;2022-12-18T01:37:04;201.95;;;47.53;;
23001;SDS011;11667;51.706;4.856;2022-12-18T01:39:33;194.07;;;45.48;;
23001;SDS011;11667;51.706;4.856;2022-12-18T01:42:02;189.35;;;46.77;;
23001;SDS011;11667;51.706;4.856;2022-12-18T01:50:27;158.00;;;42.00;;
23001;SDS011;11667;51.706;4.856;2022-12-18T01:53:04;179.90;;;45.25;;
23001;SDS011;11667;51.706;4.856;2022-12-18T01:55:45;169.00;;;44.00;;
23001;SDS011;11667;51.706;4.856;2022-12-18T01:58:17;165.22;;;45.88;;
23001;SDS011;11667;51.706;4.856;2022-12-18T02:00:47;156.15;;;43.33;;
23001;SDS011;11667;51.706;4.856;2022-12-18T02:03:19;168.30;;;45.07;;
23001;SDS011;11667;51.706;4.856;2022-12-18T02:05:58;155.67;;;41.92;;
23001;SDS011;11667;51.706;4.856;2022-12-18T02:11:24;151.00;;;43.35;;
23001;SDS011;11667;51.706;4.856;2022-12-18T02:14:09;161.60;;;44.83;;
23001;SDS011;11667;51.706;4.856;2022-12-18T02:19:46;153.30;;;43.55;;
23001;SDS011;11667;51.706;4.856;2022-12-18T02:22:38;147.57;;;41.23;;
23001;SDS011;11667;51.706;4.856;2022-12-18T02:27:51;154.72;;;44.10;;
23001;SDS011;11667;51.706;4.856;2022-12-18T02:30:21;154.38;;;43.70;;
23001;SDS011;11667;51.706;4.856;2022-12-18T02:32:52;154.63;;;43.58;;
23001;SDS011;11667;51.706;4.856;2022-12-18T02:35:23;146.10;;;43.78;;
23001;SDS011;11667;51.706;4.856;2022-12-18T02:37:56;157.27;;;44.08;;
23001;SDS011;11667;51.706;4.856;2022-12-18T02:40:27;162.05;;;45.23;;
23001;SDS011;11667;51.706;4.856;2022-12-18T02:43:11;141.88;;;41.00;;
23001;SDS011;11667;51.706;4.856;2022-12-18T02:45:56;155.00;;;44.35;;
23001;SDS011;11667;51.706;4.856;2022-12-18T02:48:31;145.85;;;42.95;;
23001;SDS011;11667;51.706;4.856;2022-12-18T02:53:58;141.37;;;43.10;;
23001;SDS011;11667;51.706;4.856;2022-12-18T02:56:29;140.30;;;42.67;;
23001;SDS011;11667;51.706;4.856;2022-12-18T02:59:15;144.62;;;41.70;;
23001;SDS011;11667;51.706;4.856;2022-12-18T03:01:55;152.93;;;42.70;;
23001;SDS011;11667;51.706;4.856;2022-12-18T03:04:28;137.30;;;41.15;;
23001;SDS011;11667;51.706;4.856;2022-12-18T03:07:01;143.90;;;41.48;;
23001;SDS011;11667;51.706;4.856;2022-12-18T03:09:34;147.00;;;42.67;;
23001;SDS011;11667;51.706;4.856;2022-12-18T03:12:17;104.43;;;31.65;;
23001;SDS011;11667;51.706;4.856;2022-12-18T03:17:34;137.90;;;42.30;;
23001;SDS011;11667;51.706;4.856;2022-12-18T03:20:10;140.85;;;42.73;;
23001;SDS011;11667;51.706;4.856;2022-12-18T03:22:36;148.22;;;42.50;;
23001;SDS011;11667;51.706;4.856;2022-12-18T03:27:40;124.25;;;38.80;;
23001;SDS011;11667;51.706;4.856;2022-12-18T03:30:12;143.78;;;41.85;;
23001;SDS011;11667;51.706;4.856;2022-12-18T03:32:48;140.43;;;41.35;;
23001;SDS011;11667;51.706;4.856;2022-12-18T03:35:26;136.50;;;40.50;;
23001;SDS011;11667;51.706;4.856;2022-12-18T03:37:55;127.40;;;40.43;;
23001;SDS011;11667;51.706;4.856;2022-12-18T03:40:40;129.03;;;40.75;;
23001;SDS011;11667;51.706;4.856;2022-12-18T03:46:23;125.22;;;39.23;;
23001;SDS011;11667;51.706;4.856;2022-12-18T03:48:52;134.12;;;40.75;;
23001;SDS011;11667;51.706;4.856;2022-12-18T03:51:19;136.55;;;40.63;;
23001;SDS011;11667;51.706;4.856;2022-12-18T03:54:07;136.72;;;42.53;;
23001;SDS011;11667;51.706;4.856;2022-12-18T03:56:42;117.75;;;39.05;;
23001;SDS011;11667;51.706;4.856;2022-12-18T03:59:13;130.12;;;40.30;;
23001;SDS011;11667;51.706;4.856;2022-12-18T04:01:46;133.22;;;40.12;;
23001;SDS011;11667;51.706;4.856;2022-12-18T04:04:16;132.70;;;40.48;;
23001;SDS011;11667;51.706;4.856;2022-12-18T04:06:48;126.62;;;40.60;;
23001;SDS011;11667;51.706;4.856;2022-12-18T04:09:19;123.22;;;39.80;;
23001;SDS011;11667;51.706;4.856;2022-12-18T04:11:50;120.87;;;38.20;;
23001;SDS011;11667;51.706;4.856;2022-12-18T04:14:21;132.50;;;41.05;;
23001;SDS011;11667;51.706;4.856;2022-12-18T04:16:52;123.75;;;39.25;;
23001;SDS011;11667;51.706;4.856;2022-12-18T04:19:23;114.67;;;39.18;;
23001;SDS011;11667;51.706;4.856;2022-12-18T04:21:53;114.72;;;38.95;;
23001;SDS011;11667;51.706;4.856;2022-12-18T04:24:22;118.70;;;38.75;;
23001;SDS011;11667;51.706;4.856;2022-12-18T04:27:07;118.55;;;38.00;;
23001;SDS011;11667;51.706;4.856;2022-12-18T04:32:07;107.07;;;36.77;;
23001;SDS011;11667;51.706;4.856;2022-12-18T04:34:37;111.08;;;37.80;;
23001;SDS011;11667;51.706;4.856;2022-12-18T04:37:06;110.68;;;36.75;;
23001;SDS011;11667;51.706;4.856;2022-12-18T04:39:36;108.32;;;37.25;;
23001;SDS011;11667;51.706;4.856;2022-12-18T04:42:07;111.07;;;38.40;;
23001;SDS011;11667;51.706;4.856;2022-12-18T04:44:37;108.60;;;38.70;;
23001;SDS011;11667;51.706;4.856;2022-12-18T04:47:06;112.12;;;37.80;;
23001;SDS011;11667;51.706;4.856;2022-12-18T04:49:36;106.70;;;38.15;;
23001;SDS011;11667;51.706;4.856;2022-12-18T04:52:05;112.50;;;37.93;;
23001;SDS011;11667;51.706;4.856;2022-12-18T04:54:34;123.95;;;37.78;;
23001;SDS011;11667;51.706;4.856;2022-12-18T04:57:04;109.60;;;37.33;;
23001;SDS011;11667;51.706;4.856;2022-12-18T04:59:33;109.65;;;37.85;;
23001;SDS011;11667;51.706;4.856;2022-12-18T05:02:03;110.50;;;37.28;;
23001;SDS011;11667;51.706;4.856;2022-12-18T05:04:32;106.37;;;37.33;;
23001;SDS011;11667;51.706;4.856;2022-12-18T05:07:02;109.35;;;36.83;;
23001;SDS011;11667;51.706;4.856;2022-12-18T05:09:31;107.12;;;37.65;;
23001;SDS011;11667;51.706;4.856;2022-12-18T05:12:01;110.78;;;37.00;;
23001;SDS011;11667;51.706;4.856;2022-12-18T05:14:30;109.60;;;37.58;;
23001;SDS011;11667;51.706;4.856;2022-12-18T05:16:59;107.12;;;38.25;;
23001;SDS011;11667;51.706;4.856;2022-12-18T05:19:29;109.22;;;37.60;;
23001;SDS011;11667;51.706;4.856;2022-12-18T05:21:58;104.43;;;37.17;;
23001;SDS011;11667;51.706;4.856;2022-12-18T05:24:28;102.85;;;36.58;;
23001;SDS011;11667;51.706;4.856;2022-12-18T05:26:58;103.27;;;37.80;;
23001;SDS011;11667;51.706;4.856;2022-12-18T05:29:27;102.22;;;35.75;;
23001;SDS011;11667;51.706;4.856;2022-12-18T05:31:57;102.58;;;36.50;;
23001;SDS011;11667;51.706;4.856;2022-12-18T05:34:26;100.87;;;36.17;;
23001;SDS011;11667;51.706;4.856;2022-12-18T05:36:55;96.55;;;34.98;;
23001;SDS011;11667;51.706;4.856;2022-12-18T05:39:25;100.10;;;37.30;;
23001;SDS011;11667;51.706;4.856;2022-12-18T05:41:55;97.88;;;35.45;;
23001;SDS011;11667;51.706;4.856;2022-12-18T05:44:24;101.95;;;36.42;;
23001;SDS011;11667;51.706;4.856;2022-12-18T05:46:54;96.40;;;36.53;;
23001;SDS011;11667;51.706;4.856;2022-12-18T05:49:23;101.80;;;36.65;;
23001;SDS011;11667;51.706;4.856;2022-12-18T05:51:53;101.97;;;36.77;;
23001;SDS011;11667;51.706;4.856;2022-12-18T05:54:22;97.82;;;36.38;;
23001;SDS011;11667;51.706;4.856;2022-12-18T05:56:52;93.20;;;34.53;;
23001;SDS011;11667;51.706;4.856;2022-12-18T05:59:21;96.40;;;35.30;;
23001;SDS011;11667;51.706;4.856;2022-12-18T06:01:50;93.55;;;35.33;;
23001;SDS011;11667;51.706;4.856;2022-12-18T06:04:20;102.55;;;36.93;;
23001;SDS011;11667;51.706;4.856;2022-12-18T06:06:49;92.65;;;35.20;;
23001;SDS011;11667;51.706;4.856;2022-12-18T06:09:19;92.88;;;35.28;;
23001;SDS011;11667;51.706;4.856;2022-12-18T06:11:49;91.57;;;35.52;;
23001;SDS011;11667;51.706;4.856;2022-12-18T06:14:20;100.33;;;34.83;;
23001;SDS011;11667;51.706;4.856;2022-12-18T06:16:55;90.97;;;33.95;;
23001;SDS011;11667;51.706;4.856;2022-12-18T06:19:20;91.10;;;33.40;;
23001;SDS011;11667;51.706;4.856;2022-12-18T06:21:49;89.45;;;34.20;;
23001;SDS011;11667;51.706;4.856;2022-12-18T06:24:19;86.15;;;33.28;;
23001;SDS011;11667;51.706;4.856;2022-12-18T06:26:48;83.52;;;33.02;;
23001;SDS011;11667;51.706;4.856;2022-12-18T06:29:18;93.55;;;33.50;;
23001;SDS011;11667;51.706;4.856;2022-12-18T06:31:47;82.85;;;31.68;;
23001;SDS011;11667;51.706;4.856;2022-12-18T06:34:16;78.52;;;31.75;;
23001;SDS011;11667;51.706;4.856;2022-12-18T06:36:46;79.10;;;31.45;;
23001;SDS011;11667;51.706;4.856;2022-12-18T06:39:15;84.15;;;31.75;;
23001;SDS011;11667;51.706;4.856;2022-12-18T06:41:44;81.53;;;32.42;;
23001;SDS011;11667;51.706;4.856;2022-12-18T06:44:14;78.97;;;32.98;;
23001;SDS011;11667;51.706;4.856;2022-12-18T06:46:43;80.25;;;31.80;;
23001;SDS011;11667;51.706;4.856;2022-12-18T06:49:13;79.25;;;31.42;;
23001;SDS011;11667;51.706;4.856;2022-12-18T06:51:43;78.97;;;31.12;;
23001;SDS011;11667;51.706;4.856;2022-12-18T06:54:14;76.37;;;30.85;;
23001;SDS011;11667;51.706;4.856;2022-12-18T06:56:44;78.95;;;31.30;;
23001;SDS011;11667;51.706;4.856;2022-12-18T06:59:14;84.03;;;32.30;;
23001;SDS011;11667;51.706;4.856;2022-12-18T07:01:43;74.72;;;30.05;;
23001;SDS011;11667;51.706;4.856;2022-12-18T07:04:13;77.45;;;30.70;;
23001;SDS011;11667;51.706;4.856;2022-12-18T07:06:43;77.53;;;30.60;;
23001;SDS011;11667;51.706;4.856;2022-12-18T07:09:12;77.90;;;30.95;;
23001;SDS011;11667;51.706;4.856;2022-12-18T07:11:41;74.22;;;30.02;;
23001;SDS011;11667;51.706;4.856;2022-12-18T07:14:11;76.97;;;30.27;;
23001;SDS011;11667;51.706;4.856;2022-12-18T07:16:40;74.60;;;30.05;;
23001;SDS011;11667;51.706;4.856;2022-12-18T07:19:10;74.67;;;29.55;;
23001;SDS011;11667;51.706;4.856;2022-12-18T07:21:39;75.78;;;30.95;;
23001;SDS011;11667;51.706;4.856;2022-12-18T07:24:08;75.10;;;30.30;;
23001;SDS011;11667;51.706;4.856;2022-12-18T07:26:38;69.20;;;30.12;;
23001;SDS011;11667;51.706;4.856;2022-12-18T07:29:07;71.22;;;29.98;;
23001;SDS011;11667;51.706;4.856;2022-12-18T07:31:37;78.20;;;30.62;;
23001;SDS011;11667;51.706;4.856;2022-12-18T07:34:09;76.20;;;30.37;;
23001;SDS011;11667;51.706;4.856;2022-12-18T07:36:40;74.77;;;29.77;;
23001;SDS011;11667;51.706;4.856;2022-12-18T07:39:13;69.62;;;29.92;;
23001;SDS011;11667;51.706;4.856;2022-12-18T07:41:42;69.53;;;29.45;;
23001;SDS011;11667;51.706;4.856;2022-12-18T07:44:15;71.07;;;29.37;;
23001;SDS011;11667;51.706;4.856;2022-12-18T07:46:44;71.65;;;29.35;;
23001;SDS011;11667;51.706;4.856;2022-12-18T07:49:13;64.82;;;27.32;;
23001;SDS011;11667;51.706;4.856;2022-12-18T07:51:43;65.57;;;28.23;;
23001;SDS011;11667;51.706;4.856;2022-12-18T07:54:14;67.80;;;29.12;;
23001;SDS011;11667;51.706;4.856;2022-12-18T07:56:44;65.00;;;28.10;;
23001;SDS011;11667;51.706;4.856;2022-12-18T07:59:13;68.70;;;28.07;;
23001;SDS011;11667;51.706;4.856;2022-12-18T08:01:42;67.00;;;27.15;;
23001;SDS011;11667;51.706;4.856;2022-12-18T08:04:13;65.37;;;28.20;;
23001;SDS011;11667;51.706;4.856;2022-12-18T08:06:42;64.95;;;28.30;;
23001;SDS011;11667;51.706;4.856;2022-12-18T08:09:13;69.85;;;28.57;;
23001;SDS011;11667;51.706;4.856;2022-12-18T08:11:43;69.37;;;28.90;;
23001;SDS011;11667;51.706;4.856;2022-12-18T08:14:13;69.85;;;30.77;;
23001;SDS011;11667;51.706;4.856;2022-12-18T08:16:42;63.65;;;27.55;;
23001;SDS011;11667;51.706;4.856;2022-12-18T08:19:11;60.17;;;28.07;;
23001;SDS011;11667;51.706;4.856;2022-12-18T08:21:41;65.87;;;28.38;;
23001;SDS011;11667;51.706;4.856;2022-12-18T08:24:10;59.53;;;26.17;;
23001;SDS011;11667;51.706;4.856;2022-12-18T08:26:40;64.40;;;29.40;;
23001;SDS011;11667;51.706;4.856;2022-12-18T08:29:11;66.25;;;28.52;;
23001;SDS011;11667;51.706;4.856;2022-12-18T08:31:42;73.00;;;30.27;;
23001;SDS011;11667;51.706;4.856;2022-12-18T08:34:11;64.42;;;29.40;;
23001;SDS011;11667;51.706;4.856;2022-12-18T08:36:41;57.38;;;27.77;;
23001;SDS011;11667;51.706;4.856;2022-12-18T08:39:10;70.35;;;32.13;;
23001;SDS011;11667;51.706;4.856;2022-12-18T08:41:39;62.60;;;28.27;;
23001;SDS011;11667;51.706;4.856;2022-12-18T08:44:09;60.03;;;27.37;;
23001;SDS011;11667;51.706;4.856;2022-12-18T08:46:56;54.05;;;26.30;;
23001;SDS011;11667;51.706;4.856;2022-12-18T08:49:26;59.03;;;25.90;;
23001;SDS011;11667;51.706;4.856;2022-12-18T08:51:56;54.40;;;25.62;;
23001;SDS011;11667;51.706;4.856;2022-12-18T08:54:26;52.60;;;24.10;;
23001;SDS011;11667;51.706;4.856;2022-12-18T08:56:56;56.77;;;26.35;;
23001;SDS011;11667;51.706;4.856;2022-12-18T08:59:25;51.95;;;23.85;;
23001;SDS011;11667;51.706;4.856;2022-12-18T09:01:55;52.00;;;24.32;;
23001;SDS011;11667;51.706;4.856;2022-12-18T09:04:24;51.13;;;23.95;;
23001;SDS011;11667;51.706;4.856;2022-12-18T09:06:54;51.85;;;24.18;;
23001;SDS011;11667;51.706;4.856;2022-12-18T09:09:24;57.85;;;25.85;;
23001;SDS011;11667;51.706;4.856;2022-12-18T09:11:53;58.20;;;27.10;;
23001;SDS011;11667;51.706;4.856;2022-12-18T09:14:23;54.13;;;26.17;;
23001;SDS011;11667;51.706;4.856;2022-12-18T09:16:52;50.60;;;24.35;;
23001;SDS011;11667;51.706;4.856;2022-12-18T09:19:22;53.28;;;23.73;;
23001;SDS011;11667;51.706;4.856;2022-12-18T09:21:51;50.75;;;23.52;;
23001;SDS011;11667;51.706;4.856;2022-12-18T09:24:20;48.87;;;23.65;;
23001;SDS011;11667;51.706;4.856;2022-12-18T09:26:52;46.00;;;22.35;;
23001;SDS011;11667;51.706;4.856;2022-12-18T09:29:24;47.80;;;23.70;;
23001;SDS011;11667;51.706;4.856;2022-12-18T09:31:54;48.28;;;22.13;;
23001;SDS011;11667;51.706;4.856;2022-12-18T09:34:23;48.95;;;23.27;;
23001;SDS011;11667;51.706;4.856;2022-12-18T09:36:53;46.37;;;22.70;;
23001;SDS011;11667;51.706;4.856;2022-12-18T09:39:22;45.20;;;23.70;;
23001;SDS011;11667;51.706;4.856;2022-12-18T09:41:52;46.23;;;23.18;;
23001;SDS011;11667;51.706;4.856;2022-12-18T09:44:27;47.75;;;22.37;;
23001;SDS011;11667;51.706;4.856;2022-12-18T09:47:13;46.08;;;21.95;;
23001;SDS011;11667;51.706;4.856;2022-12-18T09:49:45;43.10;;;21.02;;
23001;SDS011;11667;51.706;4.856;2022-12-18T09:52:26;37.08;;;17.00;;
23001;SDS011;11667;51.706;4.856;2022-12-18T09:57:37;45.80;;;21.77;;
23001;SDS011;11667;51.706;4.856;2022-12-18T10:00:16;43.25;;;20.77;;
23001;SDS011;11667;51.706;4.856;2022-12-18T10:02:50;43.00;;;20.90;;
23001;SDS011;11667;51.706;4.856;2022-12-18T10:05:24;41.40;;;20.12;;
23001;SDS011;11667;51.706;4.856;2022-12-18T10:08:00;46.45;;;21.45;;
23001;SDS011;11667;51.706;4.856;2022-12-18T10:10:48;37.78;;;20.05;;
23001;SDS011;11667;51.706;4.856;2022-12-18T10:16:00;39.35;;;19.90;;
23001;SDS011;11667;51.706;4.856;2022-12-18T10:21:20;39.92;;;20.50;;
23001;SDS011;11667;51.706;4.856;2022-12-18T10:24:03;40.25;;;20.70;;
23001;SDS011;11667;51.706;4.856;2022-12-18T10:26:48;42.88;;;21.62;;
23001;SDS011;11667;51.706;4.856;2022-12-18T10:29:18;39.50;;;20.37;;
23001;SDS011;11667;51.706;4.856;2022-12-18T10:31:55;44.25;;;20.95;;
23001;SDS011;11667;51.706;4.856;2022-12-18T10:34:23;45.20;;;24.18;;
23001;SDS011;11667;51.706;4.856;2022-12-18T10:36:53;44.67;;;22.50;;
23001;SDS011;11667;51.706;4.856;2022-12-18T10:39:22;51.68;;;22.32;;
23001;SDS011;11667;51.706;4.856;2022-12-18T10:44:44;42.30;;;23.27;;
23001;SDS011;11667;51.706;4.856;2022-12-18T10:47:15;45.17;;;23.15;;
23001;SDS011;11667;51.706;4.856;2022-12-18T10:49:52;41.95;;;22.05;;
23001;SDS011;11667;51.706;4.856;2022-12-18T10:52:19;42.27;;;21.30;;
23001;SDS011;11667;51.706;4.856;2022-12-18T10:54:53;43.43;;;21.00;;
23001;SDS011;11667;51.706;4.856;2022-12-18T11:00:18;42.88;;;21.73;;
23001;SDS011;11667;51.706;4.856;2022-12-18T11:02:48;39.98;;;21.40;;
23001;SDS011;11667;51.706;4.856;2022-12-18T11:05:26;43.35;;;21.75;;
23001;SDS011;11667;51.706;4.856;2022-12-18T11:08:00;39.15;;;20.70;;
23001;SDS011;11667;51.706;4.856;2022-12-18T11:10:31;46.40;;;22.22;;
23001;SDS011;11667;51.706;4.856;2022-12-18T11:13:28;46.35;;;21.60;;
23001;SDS011;11667;51.706;4.856;2022-12-18T11:15:46;44.70;;;21.00;;
23001;SDS011;11667;51.706;4.856;2022-12-18T11:18:17;43.48;;;20.92;;
23001;SDS011;11667;51.706;4.856;2022-12-18T11:20:51;40.10;;;20.30;;
23001;SDS011;11667;51.706;4.856;2022-12-18T11:23:25;45.43;;;20.95;;
23001;SDS011;11667;51.706;4.856;2022-12-18T11:25:59;42.88;;;20.90;;
23001;SDS011;11667;51.706;4.856;2022-12-18T11:28:34;44.53;;;22.93;;
23001;SDS011;11667;51.706;4.856;2022-12-18T11:31:22;42.25;;;22.20;;
23001;SDS011;11667;51.706;4.856;2022-12-18T11:34:00;46.37;;;22.67;;
23001;SDS011;11667;51.706;4.856;2022-12-18T11:36:48;42.90;;;22.32;;
23001;SDS011;11667;51.706;4.856;2022-12-18T11:39:19;45.95;;;21.52;;
23001;SDS011;11667;51.706;4.856;2022-12-18T11:42:12;44.75;;;21.68;;
23001;SDS011;11667;51.706;4.856;2022-12-18T11:44:51;42.80;;;21.07;;
23001;SDS011;11667;51.706;4.856;2022-12-18T11:50:28;38.75;;;20.48;;
23001;SDS011;11667;51.706;4.856;2022-12-18T11:53:09;44.93;;;22.02;;
23001;SDS011;11667;51.706;4.856;2022-12-18T11:58:30;40.90;;;20.75;;
23001;SDS011;11667;51.706;4.856;2022-12-18T12:09:56;43.15;;;21.35;;
23001;SDS011;11667;51.706;4.856;2022-12-18T12:12:31;50.45;;;25.37;;
23001;SDS011;11667;51.706;4.856;2022-12-18T12:15:22;48.25;;;22.37;;
23001;SDS011;11667;51.706;4.856;2022-12-18T12:18:22;42.65;;;21.60;;
23001;SDS011;11667;51.706;4.856;2022-12-18T12:21:23;40.73;;;20.85;;
23001;SDS011;11667;51.706;4.856;2022-12-18T12:23:58;40.55;;;20.75;;
23001;SDS011;11667;51.706;4.856;2022-12-18T12:29:22;45.83;;;22.48;;
23001;SDS011;11667;51.706;4.856;2022-12-18T12:37:35;39.83;;;21.10;;
23001;SDS011;11667;51.706;4.856;2022-12-18T12:40:03;41.53;;;21.40;;
23001;SDS011;11667;51.706;4.856;2022-12-18T12:42:37;65.50;;;27.67;;
23001;SDS011;11667;51.706;4.856;2022-12-18T12:45:36;48.00;;;22.60;;
23001;SDS011;11667;51.706;4.856;2022-12-18T12:48:24;55.20;;;25.77;;
23001;SDS011;11667;51.706;4.856;2022-12-18T12:50:56;50.60;;;24.85;;
23001;SDS011;11667;51.706;4.856;2022-12-18T12:53:28;46.48;;;23.38;;
23001;SDS011;11667;51.706;4.856;2022-12-18T12:55:59;40.70;;;22.15;;
23001;SDS011;11667;51.706;4.856;2022-12-18T12:58:31;44.42;;;22.82;;
23001;SDS011;11667;51.706;4.856;2022-12-18T13:01:09;42.33;;;22.85;;
23001;SDS011;11667;51.706;4.856;2022-12-18T13:04:03;46.25;;;23.25;;
23001;SDS011;11667;51.706;4.856;2022-12-18T13:06:47;44.80;;;22.42;;
23001;SDS011;11667;51.706;4.856;2022-12-18T13:09:18;45.95;;;23.12;;
23001;SDS011;11667;51.706;4.856;2022-12-18T13:11:49;48.35;;;24.32;;
23001;SDS011;11667;51.706;4.856;2022-12-18T13:14:37;46.95;;;23.75;;
23001;SDS011;11667;51.706;4.856;2022-12-18T13:20:02;43.50;;;23.27;;
23001;SDS011;11667;51.706;4.856;2022-12-18T13:22:35;47.88;;;24.90;;
23001;SDS011;11667;51.706;4.856;2022-12-18T13:27:59;43.65;;;22.45;;
23001;SDS011;11667;51.706;4.856;2022-12-18T13:43:58;46.28;;;23.12;;
23001;SDS011;11667;51.706;4.856;2022-12-18T13:46:30;46.55;;;22.62;;
23001;SDS011;11667;51.706;4.856;2022-12-18T13:51:57;49.77;;;24.15;;
23001;SDS011;11667;51.706;4.856;2022-12-18T13:54:34;48.05;;;24.82;;
23001;SDS011;11667;51.706;4.856;2022-12-18T13:57:04;44.38;;;23.42;;
23001;SDS011;11667;51.706;4.856;2022-12-18T13:59:37;45.43;;;24.00;;
23001;SDS011;11667;51.706;4.856;2022-12-18T14:02:14;46.53;;;24.10;;
23001;SDS011;11667;51.706;4.856;2022-12-18T14:04:46;45.10;;;24.00;;
23001;SDS011;11667;51.706;4.856;2022-12-18T14:07:24;45.30;;;24.40;;
23001;SDS011;11667;51.706;4.856;2022-12-18T14:09:55;52.20;;;25.85;;
23001;SDS011;11667;51.706;4.856;2022-12-18T14:12:32;51.18;;;26.42;;
23001;SDS011;11667;51.706;4.856;2022-12-18T14:18:21;47.08;;;25.27;;
23001;SDS011;11667;51.706;4.856;2022-12-18T14:20:54;47.67;;;24.45;;
23001;SDS011;11667;51.706;4.856;2022-12-18T14:23:32;46.95;;;24.82;;
23001;SDS011;11667;51.706;4.856;2022-12-18T14:28:57;46.13;;;23.65;;
23001;SDS011;11667;51.706;4.856;2022-12-18T14:31:31;46.70;;;24.10;;
23001;SDS011;11667;51.706;4.856;2022-12-18T14:34:01;46.18;;;23.92;;
23001;SDS011;11667;51.706;4.856;2022-12-18T14:36:30;46.30;;;23.25;;
23001;SDS011;11667;51.706;4.856;2022-12-18T14:39:00;49.80;;;24.77;;
23001;SDS011;11667;51.706;4.856;2022-12-18T14:41:29;45.63;;;23.40;;
23001;SDS011;11667;51.706;4.856;2022-12-18T14:44:05;46.00;;;22.87;;
23001;SDS011;11667;51.706;4.856;2022-12-18T14:52:02;49.15;;;24.72;;
23001;SDS011;11667;51.706;4.856;2022-12-18T14:54:34;48.17;;;23.32;;
23001;SDS011;11667;51.706;4.856;2022-12-18T14:57:05;46.98;;;23.77;;
23001;SDS011;11667;51.706;4.856;2022-12-18T14:59:37;45.52;;;23.25;;
23001;SDS011;11667;51.706;4.856;2022-12-18T15:02:15;46.02;;;23.30;;
23001;SDS011;11667;51.706;4.856;2022-12-18T15:04:53;47.73;;;23.45;;
23001;SDS011;11667;51.706;4.856;2022-12-18T15:07:39;47.62;;;24.12;;
23001;SDS011;11667;51.706;4.856;2022-12-18T15:12:45;47.03;;;23.52;;
23001;SDS011;11667;51.706;4.856;2022-12-18T15:26:03;42.25;;;21.15;;
23001;SDS011;11667;51.706;4.856;2022-12-18T15:36:24;47.55;;;24.45;;
23001;SDS011;11667;51.706;4.856;2022-12-18T15:38:54;44.33;;;24.05;;
23001;SDS011;11667;51.706;4.856;2022-12-18T15:41:26;43.63;;;22.90;;
23001;SDS011;11667;51.706;4.856;2022-12-18T15:43:56;43.92;;;23.27;;
23001;SDS011;11667;51.706;4.856;2022-12-18T15:46:25;55.23;;;29.30;;
23001;SDS011;11667;51.706;4.856;2022-12-18T15:48:55;45.05;;;23.30;;
23001;SDS011;11667;51.706;4.856;2022-12-18T15:51:28;53.42;;;29.65;;
23001;SDS011;11667;51.706;4.856;2022-12-18T15:56:28;46.40;;;22.73;;
23001;SDS011;11667;51.706;4.856;2022-12-18T15:59:22;63.42;;;33.50;;
23001;SDS011;11667;51.706;4.856;2022-12-18T16:01:48;52.88;;;27.73;;
23001;SDS011;11667;51.706;4.856;2022-12-18T16:04:20;47.80;;;24.12;;
23001;SDS011;11667;51.706;4.856;2022-12-18T16:06:50;43.63;;;22.42;;
23001;SDS011;11667;51.706;4.856;2022-12-18T16:09:22;41.68;;;23.12;;
23001;SDS011;11667;51.706;4.856;2022-12-18T16:11:53;48.90;;;28.38;;
23001;SDS011;11667;51.706;4.856;2022-12-18T16:14:23;44.63;;;24.57;;
23001;SDS011;11667;51.706;4.856;2022-12-18T16:17:00;46.28;;;24.72;;
23001;SDS011;11667;51.706;4.856;2022-12-18T16:19:31;48.48;;;24.23;;
23001;SDS011;11667;51.706;4.856;2022-12-18T16:22:00;42.23;;;22.00;;
23001;SDS011;11667;51.706;4.856;2022-12-18T16:24:30;45.52;;;23.32;;
23001;SDS011;11667;51.706;4.856;2022-12-18T16:27:02;46.42;;;23.05;;
23001;SDS011;11667;51.706;4.856;2022-12-18T16:29:32;47.67;;;25.57;;
23001;SDS011;11667;51.706;4.856;2022-12-18T16:32:01;49.88;;;26.05;;
23001;SDS011;11667;51.706;4.856;2022-12-18T16:34:31;49.88;;;25.40;;
23001;SDS011;11667;51.706;4.856;2022-12-18T16:37:03;44.90;;;24.50;;
23001;SDS011;11667;51.706;4.856;2022-12-18T16:39:34;48.70;;;26.13;;
23001;SDS011;11667;51.706;4.856;2022-12-18T16:42:05;51.98;;;25.50;;
23001;SDS011;11667;51.706;4.856;2022-12-18T16:44:44;47.48;;;26.00;;
23001;SDS011;11667;51.706;4.856;2022-12-18T16:47:14;44.20;;;23.77;;
23001;SDS011;11667;51.706;4.856;2022-12-18T16:49:44;46.18;;;23.83;;